createdAt,value
2022-11-24T00:01:20.311Z,19.52
2022-11-24T00:03:57.627Z,21.35
2022-11-24T00:06:26.514Z,20.90
2022-11-24T00:08:54.822Z,18.67
2022-11-24T00:11:28.235Z,21.55
2022-11-24T00:13:57.377Z,16.85
2022-11-24T00:16:28.133Z,20.05
2022-11-24T00:18:58.016Z,22.63
2022-11-24T00:21:27.610Z,19.67
2022-11-24T00:23:55.813Z,20.90
2022-11-24T00:26:26.588Z,22.70
2022-11-24T00:28:57.026Z,21.23
2022-11-24T00:31:27.654Z,22.40
2022-11-24T00:33:58.015Z,19.42
2022-11-24T00:36:28.207Z,18.35
2022-11-24T00:38:58.542Z,19.10
2022-11-24T00:41:27.792Z,17.65
2022-11-24T00:43:56.087Z,23.05
2022-11-24T00:46:24.474Z,20.52
2022-11-24T00:48:53.922Z,21.55
2022-11-24T00:51:24.037Z,21.95
2022-11-24T00:53:53.421Z,19.73
2022-11-24T00:56:21.210Z,18.02
2022-11-24T00:58:49.066Z,21.40
2022-11-24T01:01:20.464Z,21.38
2022-11-24T01:03:49.116Z,19.08
2022-11-24T01:06:20.141Z,18.25
2022-11-24T01:08:48.599Z,15.70
2022-11-24T01:11:20.779Z,18.38
2022-11-24T01:13:52.301Z,17.20
2022-11-24T01:16:23.929Z,18.60
2022-11-24T01:18:52.211Z,15.90
2022-11-24T01:21:20.447Z,14.48
2022-11-24T01:23:48.934Z,18.92
2022-11-24T01:26:19.334Z,16.42
2022-11-24T01:28:48.070Z,20.83
2022-11-24T01:31:17.017Z,15.02
2022-11-24T01:33:44.872Z,17.50
2022-11-24T01:36:13.597Z,17.25
2022-11-24T01:38:41.761Z,16.58
2022-11-24T01:41:15.227Z,14.27
2022-11-24T01:43:44.389Z,13.57
2022-11-24T01:46:15.064Z,20.20
2022-11-24T01:48:49.104Z,16.08
2022-11-24T01:51:22.244Z,18.95
2022-11-24T01:53:56.845Z,17.67
2022-11-24T01:56:26.825Z,13.25
2022-11-24T01:58:59.301Z,16.88
2022-11-24T02:01:29.468Z,15.60
2022-11-24T02:03:58.447Z,19.52
2022-11-24T02:06:30.136Z,17.42
2022-11-24T02:09:03.714Z,15.48
2022-11-24T02:11:37.553Z,18.88
2022-11-24T02:14:07.499Z,12.65
2022-11-24T02:16:36.883Z,14.45
2022-11-24T02:19:14.483Z,16.83
2022-11-24T02:21:42.300Z,17.73
2022-11-24T02:24:19.177Z,16.80
2022-11-24T02:26:48.630Z,14.35
2022-11-24T02:29:16.798Z,14.30
2022-11-24T02:31:54.707Z,16.10
2022-11-24T02:34:22.626Z,13.52
2022-11-24T02:36:50.504Z,14.48
2022-11-24T02:39:18.717Z,10.88
2022-11-24T02:42:00.825Z,12.05
2022-11-24T02:44:33.359Z,10.43
2022-11-24T02:47:12.861Z,10.07
2022-11-24T02:49:41.307Z,11.93
2022-11-24T02:52:09.399Z,12.88
2022-11-24T02:54:37.579Z,11.05
2022-11-24T02:57:05.990Z,12.07
2022-11-24T02:59:33.958Z,9.27
2022-11-24T03:02:01.971Z,13.07
2022-11-24T03:04:29.901Z,11.77
2022-11-24T03:06:58.441Z,12.52
2022-11-24T03:09:26.319Z,11.00
2022-11-24T03:11:55.397Z,9.50
2022-11-24T03:14:23.299Z,9.70
2022-11-24T03:16:51.297Z,11.30
2022-11-24T03:19:19.248Z,12.68
2022-11-24T03:21:47.122Z,9.32
2022-11-24T03:24:14.985Z,8.27
2022-11-24T03:26:42.852Z,13.02
2022-11-24T03:29:10.787Z,10.57
2022-11-24T03:31:38.692Z,10.52
2022-11-24T03:34:06.614Z,9.30
2022-11-24T03:36:34.586Z,11.68
2022-11-24T03:39:02.545Z,8.10
2022-11-24T03:41:30.475Z,11.95
2022-11-24T03:43:58.438Z,6.85
2022-11-24T03:46:26.428Z,7.45
2022-11-24T03:48:54.372Z,9.90
2022-11-24T03:51:22.407Z,11.35
2022-11-24T03:53:50.269Z,8.30
2022-11-24T03:56:18.224Z,9.95
2022-11-24T03:58:46.167Z,13.23
2022-11-24T04:01:14.307Z,9.48
2022-11-24T04:03:42.284Z,9.77
2022-11-24T04:06:10.291Z,9.05
2022-11-24T04:08:38.163Z,9.63
2022-11-24T04:11:07.335Z,9.50
2022-11-24T04:13:35.070Z,8.40
2022-11-24T04:16:06.619Z,7.82
2022-11-24T04:18:34.599Z,8.50
2022-11-24T04:21:02.317Z,11.98
2022-11-24T04:23:30.149Z,8.00
2022-11-24T04:25:58.082Z,13.25
2022-11-24T04:28:25.911Z,8.27
2022-11-24T04:30:53.755Z,8.20
2022-11-24T04:33:21.598Z,10.48
2022-11-24T04:35:53.662Z,15.27
2022-11-24T04:39:23.025Z,10.35
2022-11-24T04:41:09.467Z,8.10
2022-11-24T04:43:40.607Z,9.27
2022-11-24T04:46:11.877Z,9.18
2022-11-24T04:48:39.739Z,10.88
2022-11-24T04:51:07.874Z,10.00
2022-11-24T04:53:35.717Z,11.35
2022-11-24T04:56:07.317Z,10.63
2022-11-24T04:58:35.873Z,10.20
2022-11-24T05:01:07.516Z,9.25
2022-11-24T05:03:37.113Z,8.82
2022-11-24T05:06:05.346Z,9.90
2022-11-24T05:08:33.164Z,9.32
2022-11-24T05:11:05.846Z,9.18
2022-11-24T05:13:33.977Z,11.80
2022-11-24T05:16:02.015Z,8.48
2022-11-24T05:18:29.858Z,11.18
2022-11-24T05:20:58.969Z,9.35
2022-11-24T05:23:27.353Z,11.90
2022-11-24T05:25:59.864Z,10.75
2022-11-24T05:28:27.734Z,16.75
2022-11-24T05:30:59.399Z,13.32
2022-11-24T05:33:28.730Z,14.90
2022-11-24T05:36:01.464Z,11.48
2022-11-24T05:38:30.350Z,13.10
2022-11-24T05:41:02.771Z,15.57
2022-11-24T05:43:30.660Z,13.80
2022-11-24T05:46:02.233Z,22.45
2022-11-24T05:48:30.314Z,15.50
2022-11-24T05:50:58.852Z,15.23
2022-11-24T05:53:27.212Z,13.50
2022-11-24T05:55:55.563Z,18.13
2022-11-24T05:58:24.261Z,11.27
2022-11-24T06:00:52.152Z,11.10
2022-11-24T06:03:20.188Z,14.82
2022-11-24T06:05:48.398Z,10.80
2022-11-24T06:08:16.376Z,12.45
2022-11-24T06:10:44.300Z,11.27
2022-11-24T06:13:12.342Z,12.63
2022-11-24T06:15:41.093Z,9.18
2022-11-24T06:18:09.043Z,13.60
2022-11-24T06:20:37.286Z,11.07
2022-11-24T06:23:05.314Z,9.70
2022-11-24T06:25:35.795Z,11.65
2022-11-24T06:28:05.347Z,8.70
2022-11-24T06:30:33.264Z,12.73
2022-11-24T06:33:01.485Z,15.18
2022-11-24T06:35:29.506Z,13.18
2022-11-24T06:37:57.380Z,12.35
2022-11-24T06:40:25.200Z,8.00
2022-11-24T06:42:53.119Z,8.85
2022-11-24T06:45:21.022Z,9.07
2022-11-24T06:47:48.838Z,7.75
2022-11-24T06:50:16.780Z,9.55
2022-11-24T06:52:44.721Z,10.23
2022-11-24T06:55:12.810Z,13.65
2022-11-24T06:57:40.716Z,14.15
2022-11-24T07:00:09.087Z,11.13
2022-11-24T07:02:41.079Z,12.68
2022-11-24T07:05:12.155Z,9.98
2022-11-24T07:07:40.272Z,11.75
2022-11-24T07:10:08.641Z,10.07
2022-11-24T07:12:36.572Z,9.65
2022-11-24T07:15:04.772Z,10.80
2022-11-24T07:17:36.640Z,13.95
2022-11-24T07:20:05.907Z,14.63
2022-11-24T07:22:34.336Z,13.32
2022-11-24T07:25:02.971Z,14.18
2022-11-24T07:27:30.718Z,14.82
2022-11-24T07:29:58.571Z,13.70
2022-11-24T07:32:26.279Z,12.13
2022-11-24T07:34:54.130Z,12.60
2022-11-24T07:37:24.523Z,11.18
2022-11-24T07:42:23.558Z,18.67
2022-11-24T07:44:51.350Z,13.55
2022-11-24T07:47:19.149Z,15.02
2022-11-24T07:49:47.018Z,17.67
2022-11-24T07:52:14.768Z,21.35
2022-11-24T07:54:42.612Z,15.00
2022-11-24T07:57:10.499Z,14.63
2022-11-24T07:59:38.378Z,13.48
2022-11-24T08:02:06.602Z,12.25
2022-11-24T08:04:37.038Z,15.52
2022-11-24T08:07:05.045Z,20.00
2022-11-24T08:09:32.849Z,21.42
2022-11-24T08:12:00.776Z,16.17
2022-11-24T08:14:28.657Z,16.08
2022-11-24T08:16:57.967Z,18.65
2022-11-24T08:19:26.025Z,15.60
2022-11-24T08:21:53.894Z,15.23
2022-11-24T08:24:21.759Z,11.90
2022-11-24T08:26:49.702Z,17.15
2022-11-24T08:29:17.612Z,15.15
2022-11-24T08:31:45.587Z,17.20
2022-11-24T08:34:13.546Z,18.70
2022-11-24T08:36:41.339Z,14.57
2022-11-24T08:39:12.148Z,16.30
2022-11-24T08:41:39.963Z,19.05
2022-11-24T08:44:10.237Z,17.20
2022-11-24T08:46:38.135Z,13.90
2022-11-24T08:49:06.685Z,14.88
2022-11-24T08:51:34.603Z,16.45
2022-11-24T08:54:02.994Z,16.85
2022-11-24T08:56:32.757Z,21.23
2022-11-24T08:59:00.999Z,18.88
2022-11-24T09:01:29.542Z,22.08
2022-11-24T09:03:57.683Z,17.52
2022-11-24T09:06:31.103Z,31.17
2022-11-24T09:09:00.041Z,30.40
2022-11-24T09:11:28.562Z,29.20
2022-11-24T09:13:57.039Z,24.10
2022-11-24T09:16:28.053Z,22.27
2022-11-24T09:19:01.942Z,17.73
2022-11-24T09:21:31.293Z,18.83
2022-11-24T09:23:59.144Z,21.20
2022-11-24T09:26:29.587Z,19.42
2022-11-24T09:28:58.860Z,17.60
2022-11-24T09:31:29.455Z,20.15
2022-11-24T09:33:57.970Z,15.43
2022-11-24T09:36:25.875Z,14.18
2022-11-24T09:38:53.860Z,15.77
2022-11-24T09:41:33.707Z,15.07
2022-11-24T09:44:22.717Z,17.40
2022-11-24T09:47:12.151Z,17.80
2022-11-24T09:49:51.411Z,14.02
2022-11-24T09:52:43.180Z,17.05
2022-11-24T09:55:24.388Z,14.88
2022-11-24T09:58:03.405Z,12.80
2022-11-24T10:00:31.915Z,16.15
2022-11-24T10:02:59.914Z,14.82
2022-11-24T10:05:33.049Z,14.15
2022-11-24T10:08:16.542Z,19.23
2022-11-24T10:10:57.866Z,18.60
2022-11-24T10:13:33.760Z,18.67
2022-11-24T10:16:22.225Z,15.32
2022-11-24T10:19:46.250Z,17.52
2022-11-24T10:22:28.460Z,18.20
2022-11-24T10:25:08.458Z,14.70
2022-11-24T10:27:42.123Z,19.23
2022-11-24T10:30:29.351Z,27.98
2022-11-24T10:33:25.558Z,17.83
2022-11-24T10:36:12.087Z,17.45
2022-11-24T10:38:53.041Z,18.70
2022-11-24T10:41:36.591Z,20.58
2022-11-24T10:44:04.765Z,17.53
2022-11-24T10:46:37.848Z,15.88
2022-11-24T10:49:07.344Z,23.10
2022-11-24T10:51:40.587Z,20.30
2022-11-24T10:54:17.942Z,22.33
2022-11-24T10:56:47.686Z,25.08
2022-11-24T10:59:24.507Z,21.60
2022-11-24T11:01:53.492Z,22.95
2022-11-24T11:04:26.291Z,21.52
2022-11-24T11:07:09.069Z,19.45
2022-11-24T11:09:37.298Z,22.38
2022-11-24T11:12:49.925Z,20.85
2022-11-24T11:15:26.723Z,23.92
2022-11-24T11:17:59.149Z,20.00
2022-11-24T11:20:35.255Z,25.30
2022-11-24T11:23:16.865Z,20.15
2022-11-24T11:25:45.342Z,20.83
2022-11-24T11:28:19.142Z,22.98
2022-11-24T11:31:18.027Z,18.10
2022-11-24T11:34:04.121Z,25.42
2022-11-24T11:36:33.639Z,23.48
2022-11-24T11:39:03.385Z,20.73
2022-11-24T11:41:36.183Z,24.27
2022-11-24T11:44:34.717Z,19.15
2022-11-24T11:47:13.476Z,20.33
2022-11-24T11:49:41.425Z,17.02
2022-11-24T11:52:37.016Z,22.08
2022-11-24T11:55:49.650Z,18.75
2022-11-24T11:58:53.084Z,23.00
2022-11-24T12:02:09.332Z,21.33
2022-11-24T12:04:50.316Z,20.67
2022-11-24T12:07:46.348Z,18.80
2022-11-24T12:10:32.502Z,19.92
2022-11-24T12:13:25.634Z,20.90
2022-11-24T12:16:04.287Z,24.50
2022-11-24T12:18:57.179Z,20.33
2022-11-24T12:21:53.357Z,22.58
2022-11-24T12:25:22.557Z,19.63
2022-11-24T12:28:48.064Z,25.80
2022-11-24T12:31:29.852Z,21.40
2022-11-24T12:34:03.026Z,23.08
2022-11-24T12:36:33.928Z,23.25
2022-11-24T12:39:26.701Z,19.65
2022-11-24T12:42:13.229Z,17.85
2022-11-24T12:45:08.762Z,18.75
2022-11-24T12:47:45.354Z,20.13
2022-11-24T12:50:18.955Z,20.45
2022-11-24T12:52:58.587Z,25.00
2022-11-24T12:55:29.178Z,20.08
2022-11-24T12:58:25.819Z,22.08
2022-11-24T13:01:18.871Z,20.00
2022-11-24T13:04:00.873Z,19.40
2022-11-24T13:07:03.367Z,21.30
2022-11-24T13:09:31.213Z,20.70
2022-11-24T13:12:16.901Z,20.20
2022-11-24T13:17:58.161Z,18.80
2022-11-24T13:20:33.539Z,16.65
2022-11-24T13:23:03.691Z,20.67
2022-11-24T13:25:37.023Z,19.65
2022-11-24T13:28:17.504Z,21.17
2022-11-24T13:30:55.625Z,16.40
2022-11-24T13:33:30.751Z,15.63
2022-11-24T13:36:04.696Z,21.75
2022-11-24T13:38:52.815Z,14.02
2022-11-24T13:41:35.861Z,12.80
2022-11-24T13:44:16.625Z,15.57
2022-11-24T13:47:46.986Z,13.45
2022-11-24T13:50:42.444Z,15.50
2022-11-24T13:53:17.795Z,15.55
2022-11-24T13:55:57.724Z,15.18
2022-11-24T13:58:39.906Z,19.73
2022-11-24T14:01:07.728Z,14.10
2022-11-24T14:03:47.569Z,14.30
2022-11-24T14:06:38.250Z,15.55
2022-11-24T14:09:45.935Z,14.77
2022-11-24T14:12:22.297Z,15.93
2022-11-24T14:14:52.568Z,14.02
2022-11-24T14:17:28.694Z,13.95
2022-11-24T14:19:59.097Z,14.10
2022-11-24T14:22:36.792Z,16.67
2022-11-24T14:25:06.528Z,19.40
2022-11-24T14:27:38.734Z,14.90
2022-11-24T14:30:15.598Z,16.83
2022-11-24T14:32:57.275Z,17.83
2022-11-24T14:35:32.777Z,16.98
2022-11-24T14:38:03.125Z,17.08
2022-11-24T14:40:48.502Z,16.23
2022-11-24T14:43:29.917Z,18.27
2022-11-24T14:46:12.443Z,16.13
2022-11-24T14:48:50.061Z,18.23
2022-11-24T14:51:28.165Z,16.45
2022-11-24T14:53:59.916Z,16.08
2022-11-24T14:56:34.976Z,17.92
2022-11-24T14:59:03.755Z,18.90
2022-11-24T15:01:41.874Z,18.05
2022-11-24T15:07:29.569Z,15.00
2022-11-24T15:10:03.388Z,19.75
2022-11-24T15:12:42.739Z,16.92
2022-11-24T15:15:13.644Z,19.25
2022-11-24T15:18:11.733Z,19.10
2022-11-24T15:20:45.006Z,17.23
2022-11-24T15:23:26.293Z,17.30
2022-11-24T15:25:56.167Z,17.52
2022-11-24T15:28:27.681Z,18.38
2022-11-24T15:31:12.469Z,20.02
2022-11-24T15:33:42.386Z,15.40
2022-11-24T15:36:16.235Z,18.63
2022-11-24T15:38:44.073Z,17.42
2022-11-24T15:41:24.454Z,14.43
2022-11-24T15:43:58.959Z,20.00
2022-11-24T15:46:30.025Z,32.53
2022-11-24T15:48:58.211Z,30.35
2022-11-24T15:51:26.945Z,26.63
2022-11-24T15:54:00.663Z,21.38
2022-11-24T15:56:31.017Z,21.45
2022-11-24T15:58:58.989Z,29.38
2022-11-24T16:01:31.295Z,23.73
2022-11-24T16:04:00.662Z,29.23
2022-11-24T16:06:28.579Z,30.50
2022-11-24T16:08:57.784Z,36.88
2022-11-24T16:11:48.633Z,33.30
2022-11-24T16:14:16.887Z,32.78
2022-11-24T16:16:45.291Z,30.88
2022-11-24T16:19:18.068Z,29.63
2022-11-24T16:21:50.107Z,33.58
2022-11-24T16:24:17.943Z,26.42
2022-11-24T16:26:48.174Z,26.00
2022-11-24T16:29:16.981Z,25.92
2022-11-24T16:31:47.507Z,27.63
2022-11-24T16:34:18.036Z,26.42
2022-11-24T16:37:08.543Z,22.13
2022-11-24T16:39:36.922Z,24.13
2022-11-24T16:42:05.237Z,20.02
2022-11-24T16:44:36.695Z,25.35
2022-11-24T16:47:06.233Z,34.00
2022-11-24T16:49:34.660Z,22.65
2022-11-24T16:52:02.460Z,26.20
2022-11-24T16:54:31.504Z,25.05
2022-11-24T16:57:02.499Z,22.98
2022-11-24T16:59:30.576Z,24.48
2022-11-24T17:01:58.565Z,22.90
2022-11-24T17:04:26.441Z,25.38
2022-11-24T17:06:58.793Z,26.73
2022-11-24T17:09:26.730Z,24.58
2022-11-24T17:11:54.928Z,29.20
2022-11-24T17:14:22.960Z,24.25
2022-11-24T17:16:50.940Z,22.98
2022-11-24T17:19:19.619Z,24.67
2022-11-24T17:21:51.376Z,24.30
2022-11-24T17:24:19.358Z,24.17
2022-11-24T17:26:50.422Z,22.98
2022-11-24T17:29:22.369Z,27.65
2022-11-24T17:31:50.304Z,26.30
2022-11-24T17:34:21.919Z,28.85
2022-11-24T17:36:49.894Z,29.35
2022-11-24T17:39:23.246Z,27.20
2022-11-24T17:41:52.664Z,24.67
2022-11-24T17:44:20.475Z,25.17
2022-11-24T17:46:48.340Z,28.73
2022-11-24T17:49:16.186Z,30.67
2022-11-24T17:51:46.399Z,31.35
2022-11-24T17:57:02.625Z,33.05
2022-11-24T17:59:30.606Z,30.52
2022-11-24T18:01:58.576Z,32.53
2022-11-24T18:04:26.491Z,34.28
2022-11-24T18:06:54.307Z,37.97
2022-11-24T18:09:22.179Z,36.15
2022-11-24T18:11:52.724Z,29.15
2022-11-24T18:14:21.152Z,35.80
2022-11-24T18:16:49.121Z,35.55
2022-11-24T18:19:16.942Z,37.88
2022-11-24T18:21:46.362Z,36.55
2022-11-24T18:24:17.483Z,34.83
2022-11-24T18:26:50.413Z,32.30
2022-11-24T18:29:18.280Z,35.20
2022-11-24T18:31:46.171Z,31.45
2022-11-24T18:34:16.558Z,37.92
2022-11-24T18:36:45.424Z,34.03
2022-11-24T18:39:18.178Z,38.25
2022-11-24T18:41:46.748Z,35.53
2022-11-24T18:44:14.591Z,35.75
2022-11-24T18:46:49.727Z,32.35
2022-11-24T18:49:17.541Z,32.55
2022-11-24T18:51:46.727Z,33.55
2022-11-24T18:54:14.511Z,31.63
2022-11-24T18:56:43.456Z,31.67
2022-11-24T18:59:11.367Z,36.92
2022-11-24T19:01:39.207Z,37.50
2022-11-24T19:04:07.067Z,31.00
2022-11-24T19:06:37.529Z,33.65
2022-11-24T19:09:08.479Z,34.42
2022-11-24T19:11:38.683Z,41.65
2022-11-24T19:14:08.263Z,35.15
2022-11-24T19:16:36.808Z,38.45
2022-11-24T19:19:08.174Z,43.28
2022-11-24T19:21:40.261Z,35.95
2022-11-24T19:24:13.407Z,39.83
2022-11-24T19:26:41.215Z,37.75
2022-11-24T19:29:09.146Z,35.90
2022-11-24T19:31:41.012Z,38.35
2022-11-24T19:34:08.954Z,38.72
2022-11-24T19:36:36.959Z,40.90
2022-11-24T19:39:05.450Z,37.08
2022-11-24T19:41:34.467Z,37.67
2022-11-24T19:44:02.574Z,39.90
2022-11-24T19:46:30.639Z,42.03
2022-11-24T19:49:03.127Z,38.80
2022-11-24T19:51:33.895Z,37.33
2022-11-24T19:54:03.196Z,38.72
2022-11-24T19:56:34.911Z,42.13
2022-11-24T19:59:05.226Z,37.03
2022-11-24T20:01:39.750Z,43.35
2022-11-24T20:04:13.818Z,47.00
2022-11-24T20:06:44.256Z,44.70
2022-11-24T20:09:18.715Z,37.65
2022-11-24T20:11:48.786Z,40.30
2022-11-24T20:14:22.174Z,47.15
2022-11-24T20:16:50.261Z,53.47
2022-11-24T20:19:19.038Z,49.15
2022-11-24T20:21:49.471Z,41.90
2022-11-24T20:24:23.936Z,45.90
2022-11-24T20:26:54.921Z,38.70
2022-11-24T20:29:23.223Z,46.03
2022-11-24T20:31:53.910Z,40.63
2022-11-24T20:34:22.913Z,45.35
2022-11-24T20:36:52.948Z,39.28
2022-11-24T20:39:25.567Z,44.67
2022-11-24T20:41:55.287Z,44.55
2022-11-24T20:44:28.287Z,40.70
2022-11-24T20:46:59.783Z,34.20
2022-11-24T20:49:28.635Z,37.33
2022-11-24T20:51:57.728Z,38.83
2022-11-24T20:54:28.715Z,42.20
2022-11-24T20:56:56.625Z,38.67
2022-11-24T20:59:25.722Z,33.70
2022-11-24T21:01:55.591Z,35.42
2022-11-24T21:04:25.753Z,41.17
2022-11-24T21:06:57.182Z,42.60
2022-11-24T21:09:27.293Z,36.15
2022-11-24T21:11:55.509Z,34.00
2022-11-24T21:14:27.427Z,36.80
2022-11-24T21:16:57.325Z,34.70
2022-11-24T21:19:25.448Z,35.80
2022-11-24T21:21:53.607Z,29.77
2022-11-24T21:24:22.023Z,33.85
2022-11-24T21:26:52.135Z,35.65
2022-11-24T21:29:23.841Z,38.20
2022-11-24T21:31:52.682Z,40.88
2022-11-24T21:34:20.901Z,33.40
2022-11-24T21:36:52.103Z,31.70
2022-11-24T21:39:20.750Z,35.33
2022-11-24T21:41:49.074Z,37.28
2022-11-24T21:44:17.334Z,34.70
2022-11-24T21:46:51.114Z,35.13
2022-11-24T21:49:22.492Z,36.53
2022-11-24T21:51:56.011Z,45.55
2022-11-24T21:54:24.806Z,36.33
2022-11-24T21:56:53.882Z,37.33
2022-11-24T21:59:22.628Z,39.70
2022-11-24T22:01:50.852Z,36.15
2022-11-24T22:04:18.989Z,40.67
2022-11-24T22:06:47.144Z,35.03
2022-11-24T22:09:18.263Z,32.58
2022-11-24T22:11:49.621Z,29.63
2022-11-24T22:14:17.998Z,33.75
2022-11-24T22:16:46.732Z,30.27
2022-11-24T22:19:14.950Z,38.08
2022-11-24T22:21:44.355Z,35.28
2022-11-24T22:24:12.620Z,31.23
2022-11-24T22:26:40.899Z,27.92
2022-11-24T22:29:09.198Z,30.67
2022-11-24T22:31:37.350Z,31.83
2022-11-24T22:34:05.549Z,27.50
2022-11-24T22:36:33.801Z,32.17
2022-11-24T22:39:04.010Z,32.22
2022-11-24T22:41:34.074Z,30.30
2022-11-24T22:44:02.587Z,24.63
2022-11-24T22:46:32.588Z,28.63
2022-11-24T22:49:01.901Z,30.70
2022-11-24T22:51:32.662Z,34.45
2022-11-24T22:54:04.281Z,29.77
2022-11-24T22:56:33.743Z,31.38
2022-11-24T22:59:02.713Z,26.70
2022-11-24T23:01:37.188Z,26.70
2022-11-24T23:04:05.923Z,29.98
2022-11-24T23:06:34.113Z,26.90
2022-11-24T23:09:03.960Z,27.13
2022-11-24T23:11:37.988Z,30.42
2022-11-24T23:14:09.062Z,30.58
2022-11-24T23:16:37.323Z,29.15
2022-11-24T23:19:08.929Z,34.22
2022-11-24T23:21:38.752Z,28.05
2022-11-24T23:24:09.341Z,26.90
2022-11-24T23:26:41.966Z,29.23
2022-11-24T23:29:13.968Z,27.93
2022-11-24T23:31:43.733Z,29.95
2022-11-24T23:34:13.091Z,28.23
2022-11-24T23:36:41.312Z,26.02
2022-11-24T23:39:13.111Z,29.83
2022-11-24T23:41:41.854Z,27.17
2022-11-24T23:44:12.533Z,30.08
2022-11-24T23:46:41.261Z,30.20
2022-11-24T23:49:10.848Z,31.85
2022-11-24T23:51:42.544Z,30.20
2022-11-24T23:54:10.574Z,27.95
2022-11-24T23:56:38.640Z,32.05
2022-11-24T23:59:07.309Z,33.05
